ACA460 CYVR-PHNL
Flight info
| Callsign | ACA460 |
|---|---|
| Flight time | N/A |
| Altitude | 38000 |
| Route | PITUT DCT 48N130W 44N135W 37N140W DCT AXELE/N0467F400 DCT BEKME R464 BITTA MAGGI3 |
| Aircraft | A333/H-SDE3GHIJ2J3J5M1RVWXY/LB2D1 |
Departure
| Time | 2026-05-08 03:04 |
|---|---|
| Airport | Vancouver International Airport (CYVR) |
Arrival
| Time | N/A |
|---|---|
| Airport | Daniel K. Inouye International Airport (PHNL) |
| Time | Latitude | Longitude | Altitude | Speed | Heading |
|---|---|---|---|---|---|
| 2026-05-08 02:40 | 49.19579 | -123.18235 | 24 ft | 0 kts | 218° |
| 2026-05-08 02:49 | 49.19579 | -123.18234 | 23 ft | 1 kts | 218° |
| 2026-05-08 02:50 | 49.19592 | -123.18218 | 24 ft | 2 kts | 216° |
| 2026-05-08 02:50 | 49.19597 | -123.18208 | 23 ft | 2 kts | 246° |
| 2026-05-08 02:50 | 49.19604 | -123.18186 | 23 ft | 2 kts | 246° |
| 2026-05-08 02:50 | 49.19610 | -123.18163 | 25 ft | 2 kts | 245° |
| 2026-05-08 02:51 | 49.19617 | -123.18141 | 24 ft | 2 kts | 236° |
| 2026-05-08 02:51 | 49.19626 | -123.18120 | 25 ft | 2 kts | 235° |
| 2026-05-08 02:51 | 49.19636 | -123.18101 | 24 ft | 2 kts | 231° |
| 2026-05-08 02:51 | 49.19639 | -123.18095 | 24 ft | 0 kts | 231° |
| 2026-05-08 02:55 | 49.19635 | -123.18134 | 25 ft | 6 kts | 270° |
| 2026-05-08 02:55 | 49.19661 | -123.18204 | 24 ft | 10 kts | 305° |
| 2026-05-08 02:56 | 49.19683 | -123.18315 | 23 ft | 11 kts | 283° |
| 2026-05-08 02:56 | 49.19701 | -123.18453 | 24 ft | 12 kts | 279° |
| 2026-05-08 02:56 | 49.19723 | -123.18584 | 23 ft | 12 kts | 295° |
| 2026-05-08 02:56 | 49.19755 | -123.18732 | 23 ft | 12 kts | 280° |
| 2026-05-08 02:57 | 49.19774 | -123.18893 | 24 ft | 18 kts | 280° |
| 2026-05-08 02:57 | 49.19786 | -123.19080 | 24 ft | 16 kts | 251° |
| 2026-05-08 02:57 | 49.19680 | -123.19150 | 21 ft | 18 kts | 191° |
| 2026-05-08 02:57 | 49.19543 | -123.19142 | 25 ft | 22 kts | 150° |
| 2026-05-08 02:58 | 49.19417 | -123.18998 | 23 ft | 22 kts | 142° |
| 2026-05-08 02:58 | 49.19306 | -123.18865 | 23 ft | 22 kts | 141° |
| 2026-05-08 02:58 | 49.19174 | -123.18706 | 24 ft | 24 kts | 141° |
| 2026-05-08 02:58 | 49.19039 | -123.18542 | 23 ft | 23 kts | 142° |
| 2026-05-08 02:59 | 49.18949 | -123.18369 | 25 ft | 20 kts | 104° |
| 2026-05-08 02:59 | 49.18922 | -123.18153 | 24 ft | 23 kts | 100° |
| 2026-05-08 02:59 | 49.18892 | -123.17890 | 24 ft | 24 kts | 100° |
| 2026-05-08 02:59 | 49.18861 | -123.17617 | 25 ft | 27 kts | 99° |
| 2026-05-08 03:00 | 49.18834 | -123.17374 | 25 ft | 20 kts | 99° |
| 2026-05-08 03:00 | 49.18814 | -123.17213 | 25 ft | 9 kts | 101° |
| 2026-05-08 03:00 | 49.18809 | -123.17176 | 24 ft | 5 kts | 100° |
| 2026-05-08 03:00 | 49.18799 | -123.17071 | 23 ft | 15 kts | 98° |
| 2026-05-08 03:01 | 49.18777 | -123.16876 | 26 ft | 23 kts | 101° |
| 2026-05-08 03:01 | 49.18747 | -123.16606 | 26 ft | 29 kts | 100° |
| 2026-05-08 03:01 | 49.18710 | -123.16334 | 25 ft | 23 kts | 110° |
| 2026-05-08 03:01 | 49.18634 | -123.16135 | 28 ft | 17 kts | 103° |
| 2026-05-08 03:02 | 49.18618 | -123.16003 | 26 ft | 14 kts | 99° |
| 2026-05-08 03:02 | 49.18600 | -123.15845 | 27 ft | 14 kts | 102° |
| 2026-05-08 03:02 | 49.18540 | -123.15757 | 27 ft | 13 kts | 178° |
| 2026-05-08 03:02 | 49.18459 | -123.15807 | 29 ft | 13 kts | 233° |
| 2026-05-08 03:03 | 49.18458 | -123.15947 | 28 ft | 21 kts | 278° |
| 2026-05-08 03:03 | 49.18510 | -123.16413 | 25 ft | 71 kts | 281° |
| 2026-05-08 03:03 | 49.18628 | -123.17434 | 26 ft | 122 kts | 279° |
| 2026-05-08 03:03 | 49.18802 | -123.18950 | 24 ft | 166 kts | 280° |
| 2026-05-08 03:04 | 49.19024 | -123.20827 | 390 ft | 186 kts | 281° |
| 2026-05-08 03:04 | 49.19270 | -123.22777 | 1170 ft | 188 kts | 277° |
| 2026-05-08 03:04 | 49.19148 | -123.24765 | 1955 ft | 193 kts | 252° |
| 2026-05-08 03:04 | 49.18738 | -123.26809 | 2398 ft | 207 kts | 258° |
| 2026-05-08 03:05 | 49.18474 | -123.29067 | 2560 ft | 225 kts | 261° |
| 2026-05-08 03:05 | 49.18230 | -123.31499 | 2731 ft | 243 kts | 262° |
| 2026-05-08 03:05 | 49.17970 | -123.34132 | 2936 ft | 257 kts | 260° |
| 2026-05-08 03:05 | 49.17607 | -123.36859 | 3306 ft | 264 kts | 260° |
| 2026-05-08 03:06 | 49.17291 | -123.39646 | 3792 ft | 268 kts | 260° |
| 2026-05-08 03:06 | 49.16976 | -123.42467 | 4297 ft | 270 kts | 260° |
| 2026-05-08 03:06 | 49.16656 | -123.45307 | 4822 ft | 272 kts | 260° |
| 2026-05-08 03:06 | 49.16330 | -123.48165 | 5347 ft | 274 kts | 260° |
| 2026-05-08 03:07 | 49.15996 | -123.51049 | 5884 ft | 276 kts | 260° |
| 2026-05-08 03:07 | 49.15657 | -123.53948 | 6402 ft | 278 kts | 260° |
| 2026-05-08 03:07 | 49.15313 | -123.56871 | 6935 ft | 281 kts | 260° |
| 2026-05-08 03:07 | 49.14965 | -123.59816 | 7466 ft | 283 kts | 260° |
| 2026-05-08 03:08 | 49.14613 | -123.62782 | 8005 ft | 285 kts | 260° |
| 2026-05-08 03:08 | 49.14258 | -123.65773 | 8528 ft | 287 kts | 259° |
| 2026-05-08 03:08 | 49.13899 | -123.68788 | 9049 ft | 289 kts | 259° |
| 2026-05-08 03:08 | 49.13537 | -123.71827 | 9551 ft | 292 kts | 259° |
| 2026-05-08 03:09 | 49.13171 | -123.74886 | 10038 ft | 295 kts | 259° |
| 2026-05-08 03:09 | 49.12795 | -123.78023 | 10274 ft | 307 kts | 259° |
| 2026-05-08 03:09 | 49.12402 | -123.81302 | 10478 ft | 320 kts | 259° |
| 2026-05-08 03:09 | 49.11994 | -123.84692 | 10657 ft | 332 kts | 259° |
| 2026-05-08 03:10 | 49.11566 | -123.88246 | 10868 ft | 345 kts | 259° |
| 2026-05-08 03:10 | 49.11122 | -123.91916 | 11062 ft | 357 kts | 259° |
| 2026-05-08 03:10 | 49.10663 | -123.95703 | 11283 ft | 368 kts | 259° |
| 2026-05-08 03:10 | 49.10191 | -123.99579 | 11658 ft | 373 kts | 259° |
| 2026-05-08 03:11 | 49.09713 | -124.03493 | 12096 ft | 377 kts | 259° |
| 2026-05-08 03:11 | 49.09229 | -124.07446 | 12550 ft | 380 kts | 259° |
| 2026-05-08 03:11 | 49.08741 | -124.11421 | 12998 ft | 383 kts | 259° |
| 2026-05-08 03:11 | 49.08254 | -124.15375 | 13441 ft | 385 kts | 259° |
| 2026-05-08 03:12 | 49.07756 | -124.19401 | 13871 ft | 388 kts | 259° |
| 2026-05-08 03:12 | 49.07251 | -124.23477 | 14244 ft | 392 kts | 259° |
| 2026-05-08 03:12 | 49.06741 | -124.27584 | 14668 ft | 395 kts | 259° |
| 2026-05-08 03:12 | 49.06226 | -124.31715 | 15091 ft | 397 kts | 259° |
| 2026-05-08 03:13 | 49.05706 | -124.35869 | 15487 ft | 400 kts | 259° |
| 2026-05-08 03:13 | 49.05187 | -124.40008 | 15886 ft | 402 kts | 259° |
| 2026-05-08 03:13 | 49.04659 | -124.44209 | 16328 ft | 403 kts | 259° |
| 2026-05-08 03:13 | 49.04128 | -124.48414 | 16708 ft | 406 kts | 259° |
| 2026-05-08 03:14 | 49.03591 | -124.52652 | 17041 ft | 409 kts | 259° |
| 2026-05-08 03:14 | 49.03048 | -124.56929 | 17430 ft | 411 kts | 259° |
| 2026-05-08 03:14 | 49.02502 | -124.61216 | 17833 ft | 412 kts | 259° |
| 2026-05-08 03:14 | 49.01952 | -124.65515 | 18155 ft | 415 kts | 259° |
| 2026-05-08 03:15 | 49.01398 | -124.69843 | 18497 ft | 418 kts | 259° |
| 2026-05-08 03:15 | 49.00838 | -124.74200 | 18840 ft | 420 kts | 259° |
| 2026-05-08 03:15 | 49.00275 | -124.78562 | 19172 ft | 422 kts | 259° |
| 2026-05-08 03:15 | 48.99705 | -124.82960 | 19528 ft | 423 kts | 259° |
| 2026-05-08 03:16 | 48.99135 | -124.87357 | 19894 ft | 424 kts | 259° |
| 2026-05-08 03:16 | 48.98561 | -124.91764 | 20220 ft | 425 kts | 259° |
| 2026-05-08 03:16 | 48.97989 | -124.96141 | 20530 ft | 427 kts | 259° |
| 2026-05-08 03:16 | 48.97407 | -125.00578 | 20835 ft | 428 kts | 259° |
| 2026-05-08 03:17 | 48.96821 | -125.05036 | 21122 ft | 430 kts | 258° |
| 2026-05-08 03:17 | 48.96230 | -125.09518 | 21407 ft | 432 kts | 258° |
| 2026-05-08 03:17 | 48.95634 | -125.14018 | 21691 ft | 434 kts | 258° |
| 2026-05-08 03:17 | 48.95035 | -125.18535 | 21988 ft | 436 kts | 258° |
| 2026-05-08 03:18 | 48.94432 | -125.23062 | 22252 ft | 438 kts | 258° |
| 2026-05-08 03:18 | 48.93825 | -125.27606 | 22517 ft | 439 kts | 258° |
| 2026-05-08 03:18 | 48.93214 | -125.32166 | 22788 ft | 441 kts | 258° |
| 2026-05-08 03:18 | 48.92807 | -125.35193 | 22962 ft | 442 kts | 258° |
| 2026-05-08 03:19 | 48.91986 | -125.41286 | 23305 ft | 445 kts | 258° |
| 2026-05-08 03:19 | 48.91362 | -125.45899 | 23562 ft | 446 kts | 258° |
| 2026-05-08 03:19 | 48.90732 | -125.50536 | 23818 ft | 448 kts | 258° |
| 2026-05-08 03:19 | 48.90314 | -125.53608 | 23977 ft | 449 kts | 258° |
| 2026-05-08 03:20 | 48.89678 | -125.58272 | 24218 ft | 451 kts | 258° |
| 2026-05-08 03:20 | 48.89039 | -125.62942 | 24465 ft | 452 kts | 258° |
| 2026-05-08 03:20 | 48.88395 | -125.67629 | 24702 ft | 454 kts | 258° |
| 2026-05-08 03:20 | 48.87747 | -125.72332 | 24939 ft | 456 kts | 258° |
| 2026-05-08 03:21 | 48.87094 | -125.77053 | 25173 ft | 457 kts | 258° |
| 2026-05-08 03:21 | 48.86437 | -125.81795 | 25401 ft | 459 kts | 258° |
| 2026-05-08 03:21 | 48.85775 | -125.86552 | 25617 ft | 460 kts | 258° |
| 2026-05-08 03:21 | 48.85112 | -125.91307 | 25854 ft | 462 kts | 258° |
| 2026-05-08 03:22 | 48.84441 | -125.96094 | 26070 ft | 464 kts | 258° |
| 2026-05-08 03:22 | 48.83768 | -126.00889 | 26286 ft | 465 kts | 258° |
| 2026-05-08 03:22 | 48.83091 | -126.05695 | 26498 ft | 467 kts | 258° |
| 2026-05-08 03:22 | 48.82408 | -126.10525 | 26710 ft | 468 kts | 258° |
| 2026-05-08 03:23 | 48.81722 | -126.15360 | 26917 ft | 470 kts | 258° |
| 2026-05-08 03:23 | 48.81032 | -126.20209 | 27121 ft | 471 kts | 258° |
| 2026-05-08 03:23 | 48.80338 | -126.25071 | 27328 ft | 472 kts | 258° |
| 2026-05-08 03:23 | 48.79648 | -126.29891 | 27520 ft | 474 kts | 258° |
| 2026-05-08 03:24 | 48.78945 | -126.34781 | 27716 ft | 475 kts | 258° |
| 2026-05-08 03:24 | 48.78237 | -126.39693 | 27927 ft | 477 kts | 258° |
| 2026-05-08 03:24 | 48.77527 | -126.44608 | 28099 ft | 478 kts | 257° |
| 2026-05-08 03:24 | 48.76809 | -126.49554 | 28292 ft | 479 kts | 257° |
| 2026-05-08 03:25 | 48.76090 | -126.54497 | 28462 ft | 481 kts | 257° |
| 2026-05-08 03:25 | 48.75368 | -126.59445 | 28679 ft | 481 kts | 257° |
| 2026-05-08 03:25 | 48.74643 | -126.64389 | 28953 ft | 480 kts | 257° |
| 2026-05-08 03:25 | 48.73919 | -126.69319 | 29200 ft | 479 kts | 257° |
| 2026-05-08 03:26 | 48.73193 | -126.74241 | 29445 ft | 479 kts | 257° |
| 2026-05-08 03:26 | 48.72465 | -126.79167 | 29682 ft | 478 kts | 257° |
| 2026-05-08 03:26 | 48.71737 | -126.84077 | 29912 ft | 478 kts | 257° |
| 2026-05-08 03:26 | 48.71015 | -126.88927 | 30137 ft | 477 kts | 257° |
| 2026-05-08 03:27 | 48.70284 | -126.93825 | 30354 ft | 477 kts | 257° |
| 2026-05-08 03:27 | 48.69550 | -126.98727 | 30572 ft | 477 kts | 257° |
| 2026-05-08 03:27 | 48.68814 | -127.03623 | 30804 ft | 476 kts | 257° |
| 2026-05-08 03:27 | 48.68079 | -127.08500 | 30998 ft | 476 kts | 257° |
| 2026-05-08 03:28 | 48.67342 | -127.13377 | 31201 ft | 475 kts | 257° |
| 2026-05-08 03:28 | 48.66604 | -127.18248 | 31399 ft | 475 kts | 257° |
| 2026-05-08 03:28 | 48.65863 | -127.23114 | 31599 ft | 475 kts | 257° |
| 2026-05-08 03:28 | 48.65121 | -127.27984 | 31785 ft | 474 kts | 257° |
| 2026-05-08 03:29 | 48.64379 | -127.32834 | 31968 ft | 474 kts | 257° |
| 2026-05-08 03:29 | 48.63633 | -127.37692 | 32156 ft | 473 kts | 257° |
| 2026-05-08 03:29 | 48.62887 | -127.42538 | 32324 ft | 473 kts | 257° |
| 2026-05-08 03:29 | 48.62138 | -127.47386 | 32497 ft | 473 kts | 257° |
| 2026-05-08 03:30 | 48.60648 | -127.56995 | 32816 ft | 472 kts | 257° |
| 2026-05-08 03:30 | 48.59144 | -127.66637 | 33123 ft | 472 kts | 257° |
| 2026-05-08 03:31 | 48.57631 | -127.76275 | 33419 ft | 471 kts | 257° |
| 2026-05-08 03:31 | 48.56112 | -127.85896 | 33698 ft | 470 kts | 256° |
| 2026-05-08 03:32 | 48.55351 | -127.90696 | 33832 ft | 470 kts | 256° |
| 2026-05-08 03:32 | 48.54588 | -127.95493 | 33965 ft | 470 kts | 256° |
| 2026-05-08 03:32 | 48.53817 | -128.00302 | 34079 ft | 470 kts | 255° |
| 2026-05-08 03:32 | 48.52826 | -128.05005 | 34195 ft | 470 kts | 250° |